createdAt,value
2018-06-04T03:50:33.939Z,16.50
2018-06-04T03:53:18.483Z,16.50
2018-06-04T03:54:22.672Z,16.60
2018-06-04T03:55:26.235Z,16.60
2018-06-04T03:56:29.914Z,16.60
2018-06-04T03:57:35.817Z,16.60
2018-06-04T03:58:39.360Z,16.60
2018-06-04T03:59:42.889Z,16.60
2018-06-04T04:00:46.587Z,16.60
2018-06-04T04:01:50.239Z,16.70
2018-06-04T04:02:55.396Z,16.80
2018-06-04T04:03:58.962Z,17.00
2018-06-04T04:05:02.620Z,17.20
2018-06-04T04:06:06.158Z,17.40
2018-06-04T04:07:09.683Z,17.70
2018-06-04T04:08:13.208Z,17.90
2018-06-04T04:09:16.886Z,18.10
2018-06-04T04:10:20.533Z,18.40
2018-06-04T04:11:24.066Z,18.60
2018-06-04T04:12:27.618Z,18.80
2018-06-04T04:13:31.569Z,19.00
2018-06-04T04:14:35.236Z,19.20
2018-06-04T04:15:38.766Z,19.50
2018-06-04T04:16:42.297Z,19.70
2018-06-04T04:17:45.811Z,19.90
2018-06-04T04:18:49.353Z,20.10
2018-06-04T04:19:52.870Z,20.30
2018-06-04T04:20:56.491Z,20.60
2018-06-04T04:22:00.033Z,20.80
2018-06-04T04:23:03.664Z,20.90
2018-06-04T04:24:07.186Z,20.90
2018-06-04T04:25:10.765Z,21.00
2018-06-04T04:26:14.292Z,21.00
2018-06-04T04:27:17.803Z,21.20
2018-06-04T04:28:21.418Z,21.40
2018-06-04T04:29:25.032Z,21.60
2018-06-04T04:30:28.573Z,21.80
2018-06-04T04:31:32.112Z,22.00
2018-06-04T04:32:35.631Z,22.00
2018-06-04T04:33:39.304Z,22.10
2018-06-04T04:34:42.899Z,22.10
2018-06-04T04:35:46.443Z,22.20
2018-06-04T04:36:49.984Z,22.40
2018-06-04T04:37:53.648Z,22.50
2018-06-04T04:38:57.179Z,22.70
2018-06-04T04:40:00.937Z,22.70
2018-06-04T04:41:04.457Z,22.90
2018-06-04T04:42:08.788Z,23.20
2018-06-04T04:43:13.307Z,23.40
2018-06-04T04:44:17.326Z,23.40
2018-06-04T04:45:22.734Z,23.50
2018-06-04T04:46:27.494Z,23.50
2018-06-04T04:47:31.302Z,23.70
2018-06-04T04:48:34.855Z,23.90
2018-06-04T04:49:38.706Z,23.90
2018-06-04T04:50:43.151Z,24.00
2018-06-04T04:51:47.749Z,23.70
2018-06-04T04:52:51.435Z,23.60
2018-06-04T04:53:56.322Z,23.80
2018-06-04T04:54:59.914Z,24.10
2018-06-04T04:56:03.495Z,24.50
2018-06-04T04:57:08.933Z,24.60
2018-06-04T04:58:12.598Z,24.80
2018-06-04T04:59:17.005Z,24.90
2018-06-04T05:00:21.592Z,25.40
2018-06-04T05:01:26.175Z,25.80
2018-06-04T05:02:30.479Z,26.10
2018-06-04T05:03:34.110Z,26.40
2018-06-04T05:04:37.648Z,26.80
2018-06-04T05:05:41.631Z,26.90
2018-06-04T05:06:45.339Z,26.90
2018-06-04T05:07:48.866Z,27.20
2018-06-04T05:08:52.395Z,27.60
2018-06-04T05:09:56.009Z,27.60
2018-06-04T05:10:59.659Z,27.70
2018-06-04T05:12:03.225Z,27.80
2018-06-04T05:13:06.770Z,27.70
2018-06-04T05:14:10.318Z,27.70
2018-06-04T05:15:13.922Z,27.80
2018-06-04T05:16:17.540Z,28.10
2018-06-04T05:17:21.511Z,28.30
2018-06-04T05:18:25.031Z,28.40
2018-06-04T05:19:28.655Z,28.70
2018-06-04T05:20:32.291Z,28.70
2018-06-04T05:21:35.804Z,29.00
2018-06-04T05:22:39.423Z,29.00
2018-06-04T05:23:42.923Z,29.10
2018-06-04T05:24:46.488Z,28.70
2018-06-04T05:25:50.022Z,29.10
2018-06-04T05:26:53.581Z,29.40
2018-06-04T05:27:57.251Z,29.70
2018-06-04T05:29:00.887Z,30.00
2018-06-04T05:31:07.706Z,29.70
2018-06-04T05:32:12.959Z,30.10
2018-06-04T05:33:16.545Z,30.20
2018-06-04T05:35:23.337Z,30.60
2018-06-04T05:36:27.756Z,30.90
2018-06-04T05:37:31.270Z,30.70
2018-06-04T05:38:34.948Z,30.70
2018-06-04T05:39:38.476Z,30.80
2018-06-04T05:40:42.121Z,30.80
2018-06-04T05:42:49.000Z,30.80
2018-06-04T05:43:52.647Z,31.20
2018-06-04T05:44:56.324Z,31.50
2018-06-04T05:45:59.855Z,31.50
2018-06-04T05:47:03.409Z,31.40
2018-06-04T05:48:07.124Z,31.30
2018-06-04T05:49:10.708Z,31.40
2018-06-04T05:50:14.360Z,31.40
2018-06-04T05:51:17.997Z,31.20
2018-06-04T05:52:21.515Z,31.10
2018-06-04T05:53:25.009Z,30.70
2018-06-04T05:54:28.640Z,30.40
2018-06-04T05:55:32.241Z,30.70
2018-06-04T05:56:35.854Z,30.90
2018-06-04T05:57:39.451Z,30.80
2018-06-04T05:58:42.981Z,31.00
2018-06-04T05:59:46.707Z,31.00
2018-06-04T06:00:50.482Z,31.20
2018-06-04T06:01:54.292Z,31.20
2018-06-04T06:02:57.951Z,30.80
2018-06-04T06:04:01.463Z,31.10
2018-06-04T06:05:05.037Z,31.10
2018-06-04T06:06:08.724Z,31.20
2018-06-04T06:07:12.387Z,31.30
2018-06-04T06:08:15.912Z,31.40
2018-06-04T06:09:19.439Z,31.50
2018-06-04T06:10:23.041Z,31.80
2018-06-04T06:11:26.649Z,31.70
2018-06-04T06:12:30.259Z,32.00
2018-06-04T06:13:33.822Z,32.30
2018-06-04T06:14:37.343Z,32.50
2018-06-04T06:15:40.987Z,32.30
2018-06-04T06:16:44.496Z,32.40
2018-06-04T06:17:48.137Z,32.90
2018-06-04T06:18:51.842Z,32.90
2018-06-04T06:19:55.352Z,33.20
2018-06-04T06:20:59.164Z,33.20
2018-06-04T06:23:05.903Z,33.40
2018-06-04T06:24:09.532Z,33.60
2018-06-04T06:25:13.122Z,33.40
2018-06-04T06:27:19.921Z,33.70
2018-06-04T06:29:26.691Z,34.10
2018-06-04T06:30:30.211Z,34.20
2018-06-04T06:31:33.926Z,34.20
2018-06-04T06:32:37.538Z,34.60
2018-06-04T06:33:41.071Z,34.90
2018-06-04T06:34:44.730Z,34.90
2018-06-04T06:35:48.366Z,34.90
2018-06-04T06:36:51.910Z,34.70
2018-06-04T06:37:55.569Z,34.30
2018-06-04T06:38:59.106Z,34.00
2018-06-04T06:40:02.662Z,34.20
2018-06-04T06:41:06.421Z,34.20
2018-06-04T06:42:10.128Z,34.10
2018-06-04T06:43:13.925Z,34.20
2018-06-04T06:44:17.665Z,34.40
2018-06-04T06:45:21.399Z,34.70
2018-06-04T06:46:24.954Z,35.00
2018-06-04T06:48:31.699Z,35.20
2018-06-04T06:49:35.332Z,35.20
2018-06-04T06:51:42.154Z,35.20
2018-06-04T06:52:45.730Z,35.40
2018-06-04T06:53:49.406Z,35.30
2018-06-04T06:54:53.022Z,35.30
2018-06-04T06:55:56.532Z,35.40
2018-06-04T06:57:00.174Z,35.50
2018-06-04T06:58:03.723Z,34.40
2018-06-04T06:59:07.382Z,34.20
2018-06-04T07:00:11.120Z,34.40
2018-06-04T07:01:14.740Z,34.70
2018-06-04T07:02:18.344Z,34.90
2018-06-04T07:03:21.954Z,34.80
2018-06-04T07:04:25.506Z,34.60
2018-06-04T07:05:35.890Z,34.40
2018-06-04T07:06:39.415Z,33.70
2018-06-04T07:07:42.934Z,34.20
2018-06-04T07:08:46.621Z,34.20
2018-06-04T07:09:50.271Z,34.60
2018-06-04T07:10:53.867Z,34.70
2018-06-04T07:11:57.418Z,35.00
2018-06-04T07:13:01.049Z,35.30
2018-06-04T07:14:04.908Z,35.30
2018-06-04T07:15:08.499Z,35.10
2018-06-04T07:18:24.252Z,35.30
2018-06-04T07:19:27.840Z,35.30
2018-06-04T07:20:31.397Z,35.50
2018-06-04T07:21:34.983Z,35.60
2018-06-04T07:22:38.644Z,35.80
2018-06-04T07:23:42.203Z,35.90
2018-06-04T07:24:45.769Z,35.60
2018-06-04T07:25:49.458Z,35.20
2018-06-04T07:26:53.097Z,35.10
2018-06-04T07:27:56.707Z,33.70
2018-06-04T07:29:00.293Z,34.10
2018-06-04T07:30:04.022Z,34.30
2018-06-04T07:31:07.609Z,34.90
2018-06-04T07:32:11.178Z,35.40
2018-06-04T07:33:14.748Z,35.70
2018-06-04T07:34:18.367Z,35.70
2018-06-04T07:35:22.013Z,36.00
2018-06-04T07:36:25.635Z,35.90
2018-06-04T07:37:29.177Z,35.10
2018-06-04T07:38:32.884Z,35.20
2018-06-04T07:39:36.478Z,35.40
2018-06-04T07:40:44.615Z,35.30
2018-06-04T07:41:49.292Z,34.50
2018-06-04T07:43:06.848Z,34.10
2018-06-04T07:44:10.700Z,34.20
2018-06-04T07:45:48.531Z,34.60
2018-06-04T07:46:59.878Z,35.20
2018-06-04T07:48:05.821Z,35.40
2018-06-04T07:49:20.190Z,35.70
2018-06-04T07:50:34.329Z,36.20
2018-06-04T07:51:46.840Z,36.80
2018-06-04T07:52:50.844Z,36.60
2018-06-04T07:53:58.298Z,36.80
2018-06-04T07:55:29.369Z,36.80
2018-06-04T07:56:39.699Z,36.70
2018-06-04T07:57:58.996Z,36.40
2018-06-04T07:59:21.038Z,35.80
2018-06-04T08:00:34.928Z,35.60
2018-06-04T08:01:46.074Z,35.40
2018-06-04T08:02:50.536Z,35.70
2018-06-04T08:03:58.553Z,36.30
2018-06-04T08:05:11.686Z,36.40
2018-06-04T08:06:28.999Z,35.40
2018-06-04T08:07:41.989Z,35.10
2018-06-04T08:08:45.920Z,35.30
2018-06-04T08:09:50.016Z,34.80
2018-06-04T08:10:54.648Z,34.90
2018-06-04T08:11:58.610Z,34.80
2018-06-04T08:13:02.516Z,35.00
2018-06-04T08:14:06.547Z,35.40
2018-06-04T08:15:10.530Z,35.30
2018-06-04T08:16:14.453Z,35.90
2018-06-04T08:17:18.631Z,36.30
2018-06-04T08:18:22.577Z,36.30
2018-06-04T08:19:26.532Z,36.50
2018-06-04T08:20:30.408Z,36.60
2018-06-04T08:21:34.261Z,36.30
2018-06-04T08:22:38.152Z,36.00
2018-06-04T08:24:45.562Z,36.20
2018-06-04T08:25:49.444Z,36.20
2018-06-04T08:26:53.451Z,36.20
2018-06-04T08:27:57.513Z,35.40
2018-06-04T08:29:01.430Z,35.00
2018-06-04T08:30:05.375Z,34.40
2018-06-04T08:31:09.280Z,34.20
2018-06-04T08:32:13.100Z,34.30
2018-06-04T08:33:17.075Z,34.60
2018-06-04T08:34:21.110Z,34.40
2018-06-04T08:35:25.080Z,33.80
2018-06-04T08:36:29.157Z,34.00
2018-06-04T08:37:33.046Z,33.60
2018-06-04T08:38:37.035Z,33.20
2018-06-04T08:39:40.968Z,33.00
2018-06-04T08:40:44.856Z,33.30
2018-06-04T08:41:48.965Z,33.20
2018-06-04T08:42:53.156Z,33.00
2018-06-04T08:43:57.216Z,33.00
2018-06-04T08:45:01.275Z,33.20
2018-06-04T08:46:05.331Z,33.40
2018-06-04T08:47:09.270Z,33.70
2018-06-04T08:48:13.193Z,34.00
2018-06-04T08:49:17.164Z,34.00
2018-06-04T08:50:21.105Z,34.10
2018-06-04T08:51:24.960Z,34.40
2018-06-04T08:53:32.257Z,34.60
2018-06-04T08:54:36.048Z,34.60
2018-06-04T08:55:39.996Z,34.60
2018-06-04T08:56:44.207Z,34.20
2018-06-04T08:57:48.213Z,34.20
2018-06-04T08:58:52.214Z,34.00
2018-06-04T08:59:56.110Z,33.70
2018-06-04T09:00:59.901Z,33.30
2018-06-04T09:02:03.818Z,32.80
2018-06-04T09:03:07.681Z,32.50
2018-06-04T09:05:15.121Z,32.70
2018-06-04T09:06:19.330Z,32.80
2018-06-04T09:07:23.230Z,32.70
2018-06-04T09:08:27.108Z,32.70
2018-06-04T09:09:31.106Z,33.00
2018-06-04T09:10:35.136Z,32.90
2018-06-04T09:11:39.046Z,32.80
2018-06-04T09:12:43.024Z,32.40
2018-06-04T09:13:47.069Z,32.10
2018-06-04T09:14:51.486Z,31.80
2018-06-04T09:15:55.200Z,31.60
2018-06-04T09:16:59.117Z,31.40
2018-06-04T09:18:02.959Z,31.10
2018-06-04T09:19:06.994Z,31.30
2018-06-04T09:20:10.847Z,31.40
2018-06-04T09:21:14.772Z,31.20
2018-06-04T09:22:18.631Z,30.60
2018-06-04T09:23:22.611Z,30.50
2018-06-04T09:24:26.378Z,30.50
2018-06-04T09:25:30.267Z,30.70
2018-06-04T09:26:34.219Z,30.50
2018-06-04T09:27:38.175Z,30.10
2018-06-04T09:28:42.693Z,30.00
2018-06-04T09:29:46.844Z,29.70
2018-06-04T09:30:50.850Z,29.70
2018-06-04T09:31:54.718Z,30.00
2018-06-04T09:32:58.556Z,29.70
2018-06-04T09:34:02.582Z,29.70
2018-06-04T09:35:06.538Z,29.60
2018-06-04T09:36:10.354Z,29.30
2018-06-04T09:37:14.369Z,28.90
2018-06-04T09:38:18.457Z,28.30
2018-06-04T09:39:22.778Z,28.50
2018-06-04T09:40:26.764Z,28.70
2018-06-04T09:41:30.826Z,28.80
2018-06-04T09:42:34.792Z,29.00
2018-06-04T09:43:38.646Z,28.40
2018-06-04T09:44:42.561Z,28.30
2018-06-04T09:45:46.869Z,28.30
2018-06-04T09:46:50.927Z,28.50
2018-06-04T09:47:54.765Z,28.80
2018-06-04T09:48:58.922Z,28.80
2018-06-04T09:50:03.131Z,28.60
2018-06-04T09:51:07.209Z,28.60
2018-06-04T09:52:11.146Z,28.30
2018-06-04T09:53:32.642Z,28.10
2018-06-04T09:54:36.374Z,28.10
2018-06-04T09:55:40.144Z,27.90
2018-06-04T09:56:43.751Z,27.70
2018-06-04T09:57:49.513Z,27.80
2018-06-04T09:58:53.251Z,27.80
2018-06-04T09:59:56.859Z,27.60
2018-06-04T10:01:00.430Z,27.70
2018-06-04T10:02:04.056Z,28.00
2018-06-04T10:03:08.345Z,28.30
2018-06-04T10:04:12.079Z,28.40
2018-06-04T10:06:18.821Z,28.50
2018-06-04T10:07:22.473Z,28.40
2018-06-04T10:08:26.013Z,28.50
2018-06-04T10:09:29.549Z,28.60
2018-06-04T10:10:34.600Z,28.60
2018-06-04T10:11:38.119Z,28.50
2018-06-04T10:12:42.631Z,28.20
2018-06-04T10:13:46.174Z,27.90
2018-06-04T10:14:49.807Z,27.70
2018-06-04T10:15:53.452Z,27.50
2018-06-04T10:16:57.902Z,27.70
2018-06-04T10:18:01.869Z,27.80
2018-06-04T10:19:05.478Z,27.80
2018-06-04T10:20:09.037Z,27.90
2018-06-04T10:21:12.870Z,28.00
2018-06-04T10:22:16.419Z,28.00
2018-06-04T10:23:21.095Z,28.10
2018-06-04T10:24:24.940Z,28.00
2018-06-04T10:25:28.500Z,28.10
2018-06-04T10:26:32.877Z,28.30
2018-06-04T10:27:36.430Z,28.20
2018-06-04T10:28:40.132Z,27.80
2018-06-04T10:29:43.776Z,27.70
2018-06-04T10:30:47.352Z,27.60
2018-06-04T10:31:50.913Z,27.60
2018-06-04T10:32:54.496Z,27.50
2018-06-04T10:33:58.157Z,27.60
2018-06-04T10:35:03.401Z,27.60
2018-06-04T10:36:07.085Z,27.40
2018-06-04T10:37:11.265Z,27.30
2018-06-04T10:38:14.859Z,27.20
2018-06-04T10:39:18.508Z,27.10
2018-06-04T10:40:22.284Z,27.00
2018-06-04T10:41:25.921Z,27.00
2018-06-04T10:42:30.664Z,27.00
2018-06-04T10:43:34.170Z,26.80
2018-06-04T10:44:38.432Z,26.70
2018-06-04T10:45:42.007Z,26.70
2018-06-04T10:46:45.573Z,26.70
2018-06-04T10:47:49.886Z,26.60
2018-06-04T10:48:53.484Z,26.40
2018-06-04T10:49:57.152Z,26.20
2018-06-04T10:51:00.841Z,25.90
2018-06-04T10:52:04.392Z,25.90
2018-06-04T10:53:08.033Z,25.90
2018-06-04T10:54:11.942Z,25.80
2018-06-04T10:55:15.529Z,25.90
2018-06-04T10:56:19.100Z,26.20
2018-06-04T10:57:23.052Z,26.20
2018-06-04T10:58:28.093Z,26.60
2018-06-04T10:59:31.601Z,26.80
2018-06-04T11:00:35.184Z,26.80
2018-06-04T11:01:39.221Z,26.90
2018-06-04T11:02:42.861Z,26.80
2018-06-04T11:03:47.108Z,26.80
2018-06-04T11:04:52.810Z,26.80
2018-06-04T11:05:56.440Z,26.70
2018-06-04T11:07:00.207Z,26.70
2018-06-04T11:08:03.987Z,26.70
2018-06-04T11:09:11.504Z,26.90
2018-06-04T11:10:15.388Z,27.10
2018-06-04T11:11:18.976Z,27.10
2018-06-04T11:12:23.080Z,27.00
2018-06-04T11:13:26.709Z,26.90
2018-06-04T11:14:30.270Z,26.80
2018-06-04T11:15:34.461Z,26.80
2018-06-04T11:16:38.687Z,26.70
2018-06-04T11:17:43.204Z,26.80
2018-06-04T11:18:46.840Z,27.00
2018-06-04T11:19:50.849Z,27.10
2018-06-04T11:20:54.461Z,27.10
2018-06-04T11:21:58.088Z,27.10
2018-06-04T11:23:01.786Z,27.20
2018-06-04T11:24:05.353Z,27.00
2018-06-04T11:25:08.953Z,26.80
2018-06-04T11:26:13.097Z,26.70
2018-06-04T11:27:16.813Z,26.60
2018-06-04T11:28:20.347Z,26.50
2018-06-04T11:29:24.449Z,26.50
2018-06-04T11:30:28.083Z,26.40
2018-06-04T11:31:31.711Z,26.30
2018-06-04T11:32:36.164Z,26.30
2018-06-04T11:33:39.794Z,26.40
2018-06-04T11:34:43.371Z,26.50
2018-06-04T11:35:46.959Z,26.50
2018-06-04T11:36:50.464Z,26.60
2018-06-04T11:37:54.311Z,26.50
2018-06-04T11:38:57.984Z,26.50
2018-06-04T11:40:03.595Z,26.50
2018-06-04T11:41:07.314Z,26.40
2018-06-04T11:42:11.248Z,26.30
2018-06-04T11:43:14.949Z,26.00
2018-06-04T11:44:18.508Z,25.70
2018-06-04T11:45:22.393Z,25.40
2018-06-04T11:46:25.939Z,25.40
2018-06-04T11:47:29.769Z,25.30
2018-06-04T11:48:33.963Z,25.40
2018-06-04T11:49:37.566Z,25.60
2018-06-04T11:50:41.513Z,25.70
2018-06-04T11:51:45.170Z,26.00
2018-06-04T11:52:48.724Z,26.00
2018-06-04T11:53:52.283Z,25.90
2018-06-04T11:54:55.837Z,25.80
2018-06-04T11:55:59.596Z,25.70
2018-06-04T11:57:03.197Z,25.60
2018-06-04T11:58:06.900Z,25.50
2018-06-04T11:59:10.875Z,25.30
2018-06-04T12:00:14.479Z,25.10
2018-06-04T12:02:21.197Z,25.00
2018-06-04T12:03:24.760Z,24.90
2018-06-04T12:04:29.964Z,25.00
2018-06-04T12:05:33.707Z,25.10
2018-06-04T12:06:37.291Z,25.00
2018-06-04T12:07:41.301Z,25.00
2018-06-04T12:08:44.938Z,25.00
2018-06-04T12:09:48.457Z,24.80
2018-06-04T12:10:52.015Z,24.90
2018-06-04T12:11:55.523Z,25.00
2018-06-04T12:13:02.533Z,25.10
2018-06-04T12:14:06.823Z,25.20
2018-06-04T12:15:10.361Z,25.20
2018-06-04T12:16:13.917Z,25.20
2018-06-04T12:17:17.493Z,25.00
2018-06-04T12:18:21.101Z,24.90
2018-06-04T12:19:24.725Z,24.90
2018-06-04T12:20:28.305Z,25.00
2018-06-04T12:21:32.213Z,25.00
2018-06-04T12:22:35.713Z,25.10
2018-06-04T12:23:40.426Z,25.20
2018-06-04T12:24:45.401Z,25.10
2018-06-04T12:25:49.087Z,25.10
2018-06-04T12:26:53.618Z,25.10
2018-06-04T12:27:57.170Z,25.10
2018-06-04T12:29:01.995Z,25.10
2018-06-04T12:30:06.453Z,25.20
2018-06-04T12:31:10.950Z,25.30
2018-06-04T12:32:22.448Z,25.40
2018-06-04T12:33:26.068Z,25.40
2018-06-04T12:34:30.716Z,25.40
2018-06-04T12:35:34.335Z,25.40
2018-06-04T12:36:38.202Z,25.50
2018-06-04T12:37:41.853Z,25.60
2018-06-04T12:38:46.301Z,25.70
2018-06-04T12:39:56.398Z,25.90
2018-06-04T12:40:59.975Z,25.90
2018-06-04T12:42:03.573Z,25.90
2018-06-04T12:43:07.134Z,25.80
2018-06-04T12:44:10.771Z,25.70
2018-06-04T12:45:14.448Z,25.40
2018-06-04T12:46:18.992Z,25.30
2018-06-04T12:47:22.667Z,25.10
2018-06-04T12:48:26.299Z,25.00
2018-06-04T12:49:29.933Z,24.90
2018-06-04T12:50:33.533Z,24.90
2018-06-04T12:51:37.955Z,24.80
2018-06-04T12:52:41.586Z,24.90
2018-06-04T12:53:45.208Z,24.90
2018-06-04T12:54:48.938Z,24.90
2018-06-04T12:55:52.493Z,24.80
2018-06-04T12:56:56.020Z,24.70
2018-06-04T12:57:59.570Z,24.50
2018-06-04T12:59:03.350Z,24.30
2018-06-04T13:00:06.950Z,24.20
2018-06-04T13:01:10.574Z,24.10
2018-06-04T13:02:14.218Z,24.20
2018-06-04T13:03:17.783Z,24.30
2018-06-04T13:04:21.313Z,24.30
2018-06-04T13:05:24.986Z,24.40
2018-06-04T13:06:28.596Z,24.20
2018-06-04T13:07:32.313Z,24.30
2018-06-04T13:08:35.828Z,24.30
2018-06-04T13:09:40.709Z,24.30
2018-06-04T13:10:44.398Z,24.20
2018-06-04T13:11:47.940Z,24.30
2018-06-04T13:12:51.470Z,24.40
2018-06-04T13:13:55.172Z,24.40
2018-06-04T13:14:58.801Z,24.50
2018-06-04T13:16:12.309Z,24.30
2018-06-04T13:17:16.017Z,24.40
2018-06-04T13:18:35.905Z,24.30
2018-06-04T13:32:39.604Z,24.40
2018-06-04T13:33:43.231Z,24.30
2018-06-04T13:34:46.921Z,24.30
2018-06-04T13:35:50.463Z,24.20
2018-06-04T13:36:54.021Z,24.20
2018-06-04T13:37:57.560Z,24.20
2018-06-04T13:39:01.728Z,24.30
2018-06-04T13:40:05.331Z,24.30
2018-06-04T13:41:08.954Z,24.40
2018-06-04T13:42:12.535Z,24.50
2018-06-04T13:43:16.226Z,24.60
2018-06-04T13:44:19.784Z,24.60
2018-06-04T13:45:23.397Z,24.70
2018-06-04T13:46:28.760Z,24.60
2018-06-04T13:47:32.364Z,24.50
2018-06-04T13:48:35.877Z,24.40
2018-06-04T14:02:39.699Z,24.20
2018-06-04T14:03:43.304Z,24.30
2018-06-04T14:04:46.934Z,24.30
2018-06-04T14:05:50.576Z,24.30
2018-06-04T14:06:54.172Z,24.30
2018-06-04T14:07:57.783Z,24.30
2018-06-04T14:09:01.357Z,24.30
2018-06-04T14:10:05.149Z,24.30
2018-06-04T14:11:08.983Z,24.40
2018-06-04T14:12:12.692Z,24.40
2018-06-04T14:13:16.371Z,24.50
2018-06-04T14:14:19.910Z,24.50
2018-06-04T14:15:23.490Z,24.50
2018-06-04T14:16:27.073Z,24.50
2018-06-04T14:17:30.645Z,24.40
2018-06-04T14:18:34.245Z,24.40
2018-06-04T14:19:38.642Z,24.40
2018-06-04T14:20:42.303Z,24.50
2018-06-04T14:21:45.899Z,24.50
2018-06-04T14:22:49.546Z,24.60
2018-06-04T14:23:55.743Z,24.60
2018-06-04T14:24:59.641Z,24.60
2018-06-04T14:26:03.672Z,24.50
2018-06-04T14:27:07.301Z,24.60
2018-06-04T14:28:10.918Z,24.60
2018-06-04T14:29:14.534Z,24.60
2018-06-04T14:30:18.148Z,24.50
2018-06-04T14:31:21.717Z,24.50
2018-06-04T14:32:25.258Z,24.50
2018-06-04T14:33:28.913Z,24.60
2018-06-04T14:34:32.460Z,24.50
2018-06-04T14:35:36.074Z,24.50
2018-06-04T14:36:40.250Z,24.50
2018-06-04T14:37:43.745Z,24.50
2018-06-04T14:38:47.380Z,24.50
2018-06-04T14:39:51.201Z,24.40
2018-06-04T14:40:54.913Z,24.40
2018-06-04T14:41:58.752Z,24.30
2018-06-04T14:43:02.338Z,24.20
2018-06-04T14:44:05.884Z,24.20
2018-06-04T14:45:10.497Z,24.20
2018-06-04T14:46:14.441Z,24.20
2018-06-04T14:47:18.046Z,24.20
2018-06-04T14:48:22.315Z,24.30
2018-06-04T14:49:25.900Z,24.40
2018-06-04T14:50:29.719Z,24.40
2018-06-04T14:51:33.308Z,24.40
2018-06-04T14:52:36.934Z,24.50
2018-06-04T14:53:40.833Z,24.50
2018-06-04T14:54:44.566Z,24.30
2018-06-04T14:55:48.225Z,24.40
2018-06-04T14:56:51.864Z,24.30
2018-06-04T14:57:55.498Z,24.30
2018-06-04T14:58:59.163Z,24.30
2018-06-04T15:00:03.058Z,24.20
2018-06-04T15:01:07.373Z,24.20
2018-06-04T15:02:12.620Z,24.20
2018-06-04T15:03:16.423Z,24.20
2018-06-04T15:04:20.071Z,24.20
2018-06-04T15:05:23.656Z,24.20
2018-06-04T15:06:27.922Z,24.20
2018-06-04T15:07:31.600Z,24.20
2018-06-04T15:08:35.201Z,24.30
2018-06-04T15:09:38.782Z,24.20
2018-06-04T15:10:42.428Z,24.20
2018-06-04T15:11:47.289Z,24.20
2018-06-04T15:12:55.505Z,24.30
2018-06-04T15:13:59.206Z,24.20
2018-06-04T15:15:02.802Z,24.10
2018-06-04T15:16:06.397Z,24.10
2018-06-04T15:17:10.098Z,24.10
2018-06-04T15:18:13.803Z,24.00
2018-06-04T15:19:17.453Z,24.00
2018-06-04T15:20:21.011Z,24.00
2018-06-04T15:21:24.539Z,24.00
2018-06-04T15:22:28.124Z,24.10
2018-06-04T15:23:31.709Z,24.10
2018-06-04T15:24:35.370Z,24.20
2018-06-04T15:25:39.724Z,24.10
2018-06-04T15:26:43.362Z,24.10
2018-06-04T15:27:46.997Z,24.10
2018-06-04T15:28:50.543Z,24.20
2018-06-04T15:29:55.116Z,24.10
2018-06-04T15:30:58.694Z,24.10
2018-06-04T15:32:02.344Z,24.10
2018-06-04T15:33:06.084Z,24.00
2018-06-04T15:34:09.762Z,23.90
2018-06-04T15:35:13.436Z,23.80
2018-06-04T15:36:17.065Z,23.90
2018-06-04T15:37:20.663Z,23.90
2018-06-04T15:38:24.289Z,24.00
2018-06-04T15:40:31.239Z,24.00
2018-06-04T15:41:34.806Z,24.00
2018-06-04T15:42:38.351Z,23.90
2018-06-04T15:43:42.122Z,23.90
2018-06-04T15:44:45.894Z,23.80
2018-06-04T15:45:49.510Z,23.90
2018-06-04T15:46:53.081Z,23.80
2018-06-04T15:49:00.232Z,23.80
2018-06-04T15:50:04.719Z,23.70
2018-06-04T15:51:08.386Z,23.70
2018-06-04T15:52:12.073Z,23.70
2018-06-04T15:53:15.753Z,23.70
2018-06-04T15:54:19.337Z,23.70
2018-06-04T15:55:23.136Z,23.70
2018-06-04T15:56:26.744Z,23.70
2018-06-04T15:57:30.447Z,23.60
2018-06-04T16:08:19.195Z,23.60
2018-06-04T16:09:23.119Z,23.80
2018-06-04T16:10:26.885Z,23.80
2018-06-04T16:11:30.528Z,23.80
2018-06-04T16:12:34.229Z,23.70
2018-06-04T16:13:37.955Z,23.80
2018-06-04T16:14:41.847Z,23.80
2018-06-04T16:15:45.512Z,23.80
2018-06-04T16:16:49.050Z,23.80
2018-06-04T16:17:52.581Z,23.70
2018-06-04T16:18:56.140Z,23.80
2018-06-04T16:20:00.417Z,23.80
2018-06-04T16:21:03.982Z,23.70
2018-06-04T16:22:07.826Z,23.70
2018-06-04T16:24:14.773Z,23.70
2018-06-04T16:25:18.374Z,23.70
2018-06-04T16:26:22.254Z,23.70
2018-06-04T16:27:25.886Z,23.70
2018-06-04T16:28:29.615Z,23.60
2018-06-04T16:29:33.238Z,23.60
2018-06-04T16:30:37.324Z,23.70
2018-06-04T16:31:40.886Z,23.60
2018-06-04T16:32:44.440Z,23.70
2018-06-04T16:33:48.017Z,23.60
2018-06-04T16:34:51.611Z,23.60
2018-06-04T16:35:56.059Z,23.50
2018-06-04T16:36:59.675Z,23.50
2018-06-04T16:38:03.674Z,23.50
2018-06-04T16:39:09.422Z,23.60
2018-06-04T16:40:13.044Z,23.60
2018-06-04T16:41:16.746Z,23.60
2018-06-04T16:42:20.604Z,23.60
2018-06-04T16:43:24.340Z,23.50
2018-06-04T16:44:28.078Z,23.50
2018-06-04T16:45:32.182Z,23.40
2018-06-04T16:46:36.619Z,23.40
2018-06-04T16:47:40.481Z,23.40
2018-06-04T16:48:45.209Z,23.30
2018-06-04T16:49:49.056Z,23.20
2018-06-04T16:50:53.685Z,23.20
2018-06-04T16:51:57.238Z,23.10
2018-06-04T16:53:00.858Z,23.20
2018-06-04T16:54:04.697Z,23.20
2018-06-04T16:55:08.261Z,23.20
2018-06-04T16:56:11.983Z,23.20
2018-06-04T16:57:16.114Z,23.20
2018-06-04T16:58:19.678Z,23.20
2018-06-04T16:59:23.301Z,23.10
2018-06-04T17:00:27.624Z,23.20
2018-06-04T17:01:31.215Z,23.20
2018-06-04T17:02:34.765Z,23.10
2018-06-04T17:03:38.743Z,23.10
2018-06-04T17:04:42.715Z,23.10
2018-06-04T17:05:46.514Z,23.10
2018-06-04T17:06:52.151Z,23.00
2018-06-04T17:07:55.763Z,23.00
2018-06-04T17:09:00.069Z,23.00
2018-06-04T17:10:03.777Z,23.00
2018-06-04T17:11:08.615Z,23.00
2018-06-04T17:12:12.952Z,23.00
2018-06-04T17:26:11.833Z,23.00
2018-06-04T17:27:15.451Z,22.50
2018-06-04T17:28:19.049Z,22.60
2018-06-04T17:29:22.682Z,22.60
2018-06-04T17:30:26.999Z,22.50
2018-06-04T17:31:31.194Z,22.50
2018-06-04T17:32:35.268Z,22.40
2018-06-04T17:33:39.053Z,22.40
2018-06-04T17:34:42.693Z,22.40
2018-06-04T17:35:46.383Z,22.30
2018-06-04T17:36:50.170Z,22.30
2018-06-04T17:37:53.794Z,22.30
2018-06-04T17:38:58.020Z,22.20
2018-06-04T17:40:01.736Z,22.20
2018-06-04T17:41:10.196Z,22.20
2018-06-04T17:42:13.858Z,22.20
2018-06-04T17:43:17.474Z,22.10
2018-06-04T17:44:21.070Z,22.10
2018-06-04T17:45:24.683Z,22.10
2018-06-04T17:46:28.367Z,22.20
2018-06-04T17:47:31.955Z,22.10
2018-06-04T17:48:35.570Z,22.00
2018-06-04T17:49:39.117Z,22.00
2018-06-04T17:50:42.982Z,22.00
2018-06-04T17:51:47.966Z,22.00
2018-06-04T17:52:51.576Z,21.90
2018-06-04T17:53:55.323Z,21.90
2018-06-04T17:54:58.856Z,21.80
2018-06-04T17:56:02.507Z,21.70
2018-06-04T17:57:07.239Z,21.70
2018-06-04T17:58:10.977Z,21.60
2018-06-04T17:59:14.789Z,21.60
2018-06-04T18:00:18.368Z,21.60
2018-06-04T18:01:21.963Z,21.60
2018-06-04T18:02:25.583Z,21.60
2018-06-04T18:03:29.535Z,21.60
2018-06-04T18:04:33.125Z,21.60
2018-06-04T18:05:36.997Z,21.50
2018-06-04T18:06:40.631Z,21.50
2018-06-04T18:07:44.415Z,21.50
2018-06-04T18:08:48.196Z,21.50
2018-06-04T18:09:51.895Z,21.40
2018-06-04T18:10:55.588Z,21.40
2018-06-04T18:12:00.218Z,21.40
2018-06-04T18:13:03.841Z,21.40
2018-06-04T18:15:10.873Z,21.30
2018-06-04T18:16:14.732Z,21.30
2018-06-04T18:18:21.801Z,21.20
2018-06-04T18:19:25.545Z,21.20
2018-06-04T18:20:29.231Z,21.10
2018-06-04T18:21:32.965Z,21.10
2018-06-04T18:22:36.583Z,21.00
2018-06-04T18:23:40.350Z,21.00
2018-06-04T18:24:44.453Z,21.00
2018-06-04T18:25:48.044Z,21.00
2018-06-04T18:26:51.781Z,21.00
2018-06-04T18:27:55.455Z,21.00
2018-06-04T18:28:59.145Z,21.00
2018-06-04T18:30:03.127Z,21.00
2018-06-04T18:31:07.497Z,21.00
2018-06-04T18:32:11.118Z,20.90
2018-06-04T18:33:14.912Z,20.90
2018-06-04T18:34:18.501Z,20.90
2018-06-04T18:35:22.539Z,20.90
2018-06-04T18:46:06.524Z,20.80
2018-06-04T18:47:10.174Z,20.50
2018-06-04T18:48:13.811Z,20.40
2018-06-04T18:49:17.446Z,20.40
2018-06-04T18:50:21.215Z,20.40
2018-06-04T18:51:24.977Z,20.30
2018-06-04T18:53:31.956Z,20.20
2018-06-04T18:54:35.544Z,20.20
2018-06-04T18:55:39.352Z,20.10
2018-06-04T18:56:43.238Z,20.10
2018-06-04T18:57:47.096Z,20.10
2018-06-04T18:58:51.107Z,20.10